Time;durP1;ratioP1;P1;durP2;ratioP2;P2;SDS_P1;SDS_P2;PMS_P1;PMS_P2;Temp;Humidity;BMP_temperature;BMP_pressure;BME280_temperature;BME280_humidity;BME280_pressure;Samples;Min_cycle;Max_cycle;Signal;HPM_P1;HPM_P2
2023/09/10 00:02:21;;;;;;;10.82;7.85;;;;;;;;;;5007882;28;98641;-78
2023/09/10 00:04:47;;;;;;;11.90;9.15;;;;;;;;;;5007253;28;99247;-77
2023/09/10 00:07:14;;;;;;;13.00;8.52;;;;;;;;;;5006864;28;101353;-78
2023/09/10 00:09:40;;;;;;;10.85;8.15;;;;;;;;;;5007209;28;98553;-78
2023/09/10 00:12:07;;;;;;;11.75;8.10;;;;;;;;;;5007419;28;98695;-78
2023/09/10 00:14:34;;;;;;;11.77;8.38;;;;;;;;;;4988430;28;100697;-77
2023/09/10 00:17:00;;;;;;;13.02;8.63;;;;;;;;;;5007632;28;98563;-77
2023/09/10 00:19:27;;;;;;;11.77;8.60;;;;;;;;;;5010358;28;99535;-78
2023/09/10 00:21:53;;;;;;;13.10;9.02;;;;;;;;;;5008080;28;98145;-78
2023/09/10 00:24:20;;;;;;;10.70;8.48;;;;;;;;;;5007385;28;98607;-78
2023/09/10 00:26:46;;;;;;;11.85;8.98;;;;;;;;;;5006497;28;99710;-77
2023/09/10 00:29:13;;;;;;;12.50;8.55;;;;;;;;;;5006630;28;99918;-78
2023/09/10 00:31:40;;;;;;;13.85;9.27;;;;;;;;;;4986276;28;101287;-78
2023/09/10 00:34:06;;;;;;;13.27;8.38;;;;;;;;;;4988075;28;100166;-78
2023/09/10 00:36:34;;;;;;;10.77;8.02;;;;;;;;;;4988028;28;98628;-78
2023/09/10 00:39:00;;;;;;;12.48;9.63;;;;;;;;;;5009791;28;98921;-78
2023/09/10 00:41:28;;;;;;;14.20;10.18;;;;;;;;;;4989268;28;99427;-78
2023/09/10 00:43:54;;;;;;;13.45;9.35;;;;;;;;;;4987925;28;101569;-78
2023/09/10 00:46:21;;;;;;;14.27;10.43;;;;;;;;;;4988710;28;101426;-78
2023/09/10 00:48:47;;;;;;;12.07;8.55;;;;;;;;;;4987664;28;98525;-78
2023/09/10 00:51:14;;;;;;;11.20;8.07;;;;;;;;;;5006687;28;98873;-78
2023/09/10 00:53:41;;;;;;;13.25;8.85;;;;;;;;;;5006139;28;99990;-78
2023/09/10 00:56:09;;;;;;;13.15;9.25;;;;;;;;;;5007305;28;99090;-78
2023/09/10 00:58:35;;;;;;;13.30;10.10;;;;;;;;;;5006810;28;98781;-78
2023/09/10 01:01:03;;;;;;;;;;;;;;;;;;5009505;28;98976;-78
2023/09/10 01:03:33;;;;;;;14.05;8.85;;;;;;;;;;4989906;28;99488;-78
2023/09/10 01:06:00;;;;;;;14.13;9.52;;;;;;;;;;5006498;28;100131;-78
2023/09/10 01:08:27;;;;;;;13.18;8.70;;;;;;;;;;5006258;28;98884;-79
2023/09/10 01:10:59;;;;;;;11.85;8.95;;;;;;;;;;5006695;28;98972;-78
2023/09/10 01:13:28;;;;;;;13.95;9.40;;;;;;;;;;5006410;28;99601;-78
2023/09/10 01:15:58;;;;;;;16.48;9.52;;;;;;;;;;4987783;28;98595;-78
2023/09/10 01:18:30;;;;;;;13.55;9.05;;;;;;;;;;5005414;28;99503;-78
2023/09/10 01:20:56;;;;;;;14.63;8.73;;;;;;;;;;5005967;28;101244;-79
2023/09/10 01:23:42;;;;;;;12.57;8.77;;;;;;;;;;4991254;28;99096;-78
2023/09/10 01:26:08;;;;;;;12.77;9.55;;;;;;;;;;4987645;28;102092;-78
2023/09/10 01:28:35;;;;;;;13.02;9.35;;;;;;;;;;5005886;28;98535;-78
2023/09/10 01:31:01;;;;;;;14.05;9.82;;;;;;;;;;5006374;28;98886;-78
2023/09/10 01:33:30;;;;;;;14.70;10.57;;;;;;;;;;5005604;28;99220;-78
2023/09/10 01:36:07;;;;;;;17.98;12.98;;;;;;;;;;5005798;28;98019;-78
2023/09/10 01:38:47;;;;;;;14.50;11.85;;;;;;;;;;4986994;28;99848;-78
2023/09/10 01:41:16;;;;;;;13.57;10.43;;;;;;;;;;4987195;28;99101;-78
2023/09/10 01:43:43;;;;;;;14.40;10.95;;;;;;;;;;5004873;28;99479;-78
2023/09/10 01:46:11;;;;;;;12.57;9.35;;;;;;;;;;5008165;28;99710;-78
2023/09/10 01:48:37;;;;;;;13.82;9.70;;;;;;;;;;5005494;28;98850;-78
2023/09/10 01:51:04;;;;;;;14.15;9.57;;;;;;;;;;4987540;28;101914;-78
2023/09/10 01:53:31;;;;;;;11.75;8.77;;;;;;;;;;4986960;28;99265;-78
2023/09/10 01:55:57;;;;;;;13.45;9.13;;;;;;;;;;5005752;28;98564;-78
2023/09/10 01:58:24;;;;;;;13.15;9.45;;;;;;;;;;4987928;28;101912;-78
2023/09/10 02:00:51;;;;;;;13.38;9.45;;;;;;;;;;4971288;28;102192;-78
2023/09/10 02:03:18;;;;;;;12.57;9.50;;;;;;;;;;4987364;28;98471;-78
2023/09/10 02:05:45;;;;;;;15.05;10.32;;;;;;;;;;5003226;28;99628;-78
2023/09/10 02:08:11;;;;;;;13.85;9.98;;;;;;;;;;4975825;28;102514;-78
2023/09/10 02:10:38;;;;;;;14.20;9.73;;;;;;;;;;5001437;28;99883;-78
2023/09/10 02:13:04;;;;;;;14.02;9.68;;;;;;;;;;4970443;28;100225;-78
2023/09/10 02:15:31;;;;;;;14.45;10.30;;;;;;;;;;5005516;28;98440;-79
2023/09/10 02:17:58;;;;;;;13.07;9.90;;;;;;;;;;5004629;28;99081;-78
2023/09/10 02:20:24;;;;;;;12.18;9.07;;;;;;;;;;4986709;28;101756;-78
2023/09/10 02:22:51;;;;;;;13.57;10.27;;;;;;;;;;4986574;28;98539;-78
2023/09/10 02:25:17;;;;;;;13.60;9.70;;;;;;;;;;5005208;28;99280;-78
2023/09/10 02:27:44;;;;;;;13.50;9.63;;;;;;;;;;5003449;28;99320;-78
2023/09/10 02:30:10;;;;;;;15.55;11.38;;;;;;;;;;5008832;28;98829;-78
2023/09/10 02:32:38;;;;;;;15.07;10.98;;;;;;;;;;5003939;28;100045;-77
2023/09/10 02:35:05;;;;;;;14.32;10.05;;;;;;;;;;4987124;28;98758;-78
2023/09/10 02:37:32;;;;;;;13.13;10.02;;;;;;;;;;5005333;28;98866;-78
2023/09/10 02:39:59;;;;;;;14.20;10.15;;;;;;;;;;5005248;28;99043;-78
2023/09/10 02:42:25;;;;;;;13.00;10.00;;;;;;;;;;4986856;28;99126;-78
2023/09/10 02:44:52;;;;;;;13.93;9.68;;;;;;;;;;4986404;28;100268;-78
2023/09/10 02:47:18;;;;;;;14.57;10.32;;;;;;;;;;4986858;28;99257;-78
2023/09/10 02:49:45;;;;;;;14.00;10.05;;;;;;;;;;4989856;28;97965;-78
2023/09/10 02:52:11;;;;;;;14.15;10.07;;;;;;;;;;5004221;28;99342;-77
2023/09/10 02:54:38;;;;;;;12.57;10.02;;;;;;;;;;5005091;28;99099;-78
2023/09/10 02:57:05;;;;;;;16.65;10.82;;;;;;;;;;5004803;28;99480;-78
2023/09/10 02:59:31;;;;;;;15.50;10.80;;;;;;;;;;4993820;28;100138;-78
2023/09/10 03:01:58;;;;;;;15.95;11.70;;;;;;;;;;4992736;28;98776;-77
2023/09/10 03:04:24;;;;;;;16.50;11.43;;;;;;;;;;4990319;28;101757;-77
2023/09/10 03:06:51;;;;;;;15.60;10.85;;;;;;;;;;5008779;28;99055;-77
2023/09/10 03:09:18;;;;;;;13.45;10.25;;;;;;;;;;4991631;28;98968;-77
2023/09/10 03:11:45;;;;;;;14.43;10.60;;;;;;;;;;5013915;28;99055;-78
2023/09/10 03:14:11;;;;;;;;;;;;;;;;;;5012192;28;97852;-77
2023/09/10 03:16:39;;;;;;;13.98;9.85;;;;;;;;;;5003522;28;100589;-78
2023/09/10 03:19:08;;;;;;;13.40;9.82;;;;;;;;;;5004794;28;100719;-78
2023/09/10 03:21:38;;;;;;;13.52;10.43;;;;;;;;;;4994203;28;100370;-78
2023/09/10 03:24:06;;;;;;;13.55;10.57;;;;;;;;;;4995335;28;102049;-78
2023/09/10 03:26:32;;;;;;;14.13;9.93;;;;;;;;;;5016231;28;99429;-77
2023/09/10 03:28:59;;;;;;;13.45;10.20;;;;;;;;;;4983941;28;99585;-78
2023/09/10 03:31:27;;;;;;;12.23;9.43;;;;;;;;;;4992593;28;101280;-78
2023/09/10 03:33:54;;;;;;;13.80;9.75;;;;;;;;;;4989124;28;101198;-77
2023/09/10 03:36:21;;;;;;;14.18;9.82;;;;;;;;;;5010681;28;98952;-77
2023/09/10 03:38:47;;;;;;;13.07;9.43;;;;;;;;;;4993487;28;100927;-77
2023/09/10 03:41:14;;;;;;;12.68;9.13;;;;;;;;;;4997763;28;100500;-77
2023/09/10 03:43:40;;;;;;;13.15;9.50;;;;;;;;;;4996390;28;100405;-77
2023/09/10 03:46:07;;;;;;;13.95;9.57;;;;;;;;;;4995259;28;102931;-77
2023/09/10 03:48:34;;;;;;;12.88;8.88;;;;;;;;;;5021282;28;98537;-77
2023/09/10 03:51:01;;;;;;;12.77;9.32;;;;;;;;;;4997373;28;99208;-78
2023/09/10 03:53:28;;;;;;;13.98;10.43;;;;;;;;;;4985568;28;102404;-77
2023/09/10 03:55:54;;;;;;;12.80;9.18;;;;;;;;;;5008832;28;98596;-77
2023/09/10 03:58:21;;;;;;;14.68;10.10;;;;;;;;;;5019104;28;98445;-77
2023/09/10 04:00:47;;;;;;;12.25;8.88;;;;;;;;;;5008382;28;98714;-77
2023/09/10 04:03:15;;;;;;;15.95;10.45;;;;;;;;;;4990218;28;101005;-77
2023/09/10 04:05:41;;;;;;;13.93;9.60;;;;;;;;;;4999175;28;101906;-76
2023/09/10 04:08:08;;;;;;;13.52;10.65;;;;;;;;;;5007980;28;98575;-77
2023/09/10 04:10:34;;;;;;;16.95;10.93;;;;;;;;;;5006896;28;99274;-77
2023/09/10 04:13:01;;;;;;;14.07;10.30;;;;;;;;;;5005639;28;99359;-77
2023/09/10 04:15:28;;;;;;;12.13;9.55;;;;;;;;;;4988294;28;98752;-77
2023/09/10 04:17:54;;;;;;;13.05;9.73;;;;;;;;;;5010602;28;99027;-77
2023/09/10 04:20:21;;;;;;;16.40;11.10;;;;;;;;;;5007189;28;98607;-77
2023/09/10 04:22:48;;;;;;;13.00;9.88;;;;;;;;;;5005644;28;99071;-77
2023/09/10 04:25:15;;;;;;;14.52;10.63;;;;;;;;;;4989560;28;99830;-77
2023/09/10 04:27:41;;;;;;;11.95;9.50;;;;;;;;;;4988179;28;97871;-78
2023/09/10 04:30:09;;;;;;;13.07;10.13;;;;;;;;;;4989061;28;100780;-78
2023/09/10 04:32:35;;;;;;;14.05;10.07;;;;;;;;;;4987784;28;100151;-76
2023/09/10 04:35:04;;;;;;;13.98;10.13;;;;;;;;;;4986572;28;99599;-75
2023/09/10 04:37:31;;;;;;;14.60;11.40;;;;;;;;;;4990344;28;102343;-76
2023/09/10 04:39:58;;;;;;;15.65;10.75;;;;;;;;;;5006039;28;98513;-76
2023/09/10 04:42:24;;;;;;;13.27;9.88;;;;;;;;;;4987598;28;101727;-76
2023/09/10 04:44:51;;;;;;;13.45;10.77;;;;;;;;;;4988062;28;102132;-76
2023/09/10 04:47:17;;;;;;;14.18;11.27;;;;;;;;;;4971276;28;98838;-76
2023/09/10 04:49:44;;;;;;;14.98;11.93;;;;;;;;;;4987396;28;102110;-77
2023/09/10 04:52:11;;;;;;;12.82;9.85;;;;;;;;;;4988466;28;98973;-77
2023/09/10 04:54:37;;;;;;;12.50;9.95;;;;;;;;;;5006748;28;98789;-76
2023/09/10 04:57:04;;;;;;;13.68;10.18;;;;;;;;;;4988422;28;100104;-76
2023/09/10 04:59:31;;;;;;;15.25;10.25;;;;;;;;;;5008950;28;100246;-76
2023/09/10 05:01:58;;;;;;;14.82;11.23;;;;;;;;;;4987657;28;102363;-76
2023/09/10 05:04:25;;;;;;;;;;;;;;;;;;4987761;28;102046;-76
2023/09/10 05:06:52;;;;;;;13.80;10.35;;;;;;;;;;4989134;28;118939;-76
2023/09/10 05:09:19;;;;;;;13.95;10.27;;;;;;;;;;4987300;28;102197;-76
2023/09/10 05:11:45;;;;;;;15.00;11.43;;;;;;;;;;4987029;28;101842;-76
2023/09/10 05:14:12;;;;;;;15.80;9.88;;;;;;;;;;4987732;28;98673;-76
2023/09/10 05:16:38;;;;;;;12.95;9.30;;;;;;;;;;4988619;28;98912;-76
2023/09/10 05:19:06;;;;;;;13.30;10.38;;;;;;;;;;4987228;28;102550;-77
2023/09/10 05:21:32;;;;;;;13.48;9.45;;;;;;;;;;4990376;28;98531;-76
2023/09/10 05:23:59;;;;;;;13.98;9.88;;;;;;;;;;5004595;28;100655;-76
2023/09/10 05:26:25;;;;;;;14.20;9.45;;;;;;;;;;4987735;28;98916;-76
2023/09/10 05:28:53;;;;;;;15.25;10.02;;;;;;;;;;4987237;28;101523;-76
2023/09/10 05:31:20;;;;;;;14.68;9.65;;;;;;;;;;4969953;28;101780;-76
2023/09/10 05:33:47;;;;;;;12.15;9.80;;;;;;;;;;5005525;28;98678;-76
2023/09/10 05:36:13;;;;;;;13.45;10.07;;;;;;;;;;4987607;28;101534;-76
2023/09/10 05:38:40;;;;;;;13.52;10.18;;;;;;;;;;4986717;28;102144;-76
2023/09/10 05:41:08;;;;;;;12.98;9.85;;;;;;;;;;4987061;28;97848;-76
2023/09/10 05:43:34;;;;;;;16.40;10.88;;;;;;;;;;4990474;28;101198;-76
2023/09/10 05:46:01;;;;;;;14.55;9.93;;;;;;;;;;4970710;28;98678;-78
2023/09/10 05:48:31;;;;;;;12.65;9.40;;;;;;;;;;4986858;28;101686;-78
2023/09/10 05:50:58;;;;;;;14.20;10.38;;;;;;;;;;4987483;28;101520;-78
2023/09/10 05:53:27;;;;;;;13.95;10.05;;;;;;;;;;4986769;28;98689;-79
2023/09/10 05:55:54;;;;;;;;;;;;;;;;;;4987727;28;101735;-79
2023/09/10 05:58:21;;;;;;;13.77;9.40;;;;;;;;;;5006483;28;105071;-79
2023/09/10 06:00:50;;;;;;;11.63;9.25;;;;;;;;;;5005488;28;98484;-79
2023/09/10 06:03:16;;;;;;;12.75;9.63;;;;;;;;;;4987082;28;101528;-79
2023/09/10 06:05:43;;;;;;;13.13;8.70;;;;;;;;;;4990625;28;101320;-79
2023/09/10 06:08:09;;;;;;;12.60;9.50;;;;;;;;;;5005792;28;98497;-79
2023/09/10 06:10:36;;;;;;;14.27;9.70;;;;;;;;;;4986598;28;102197;-79
2023/09/10 06:13:03;;;;;;;13.13;9.35;;;;;;;;;;5004585;28;99884;-79
2023/09/10 06:15:29;;;;;;;12.63;8.80;;;;;;;;;;4986888;28;102142;-79
2023/09/10 06:17:56;;;;;;;13.63;9.50;;;;;;;;;;4986538;28;102325;-79
2023/09/10 06:20:23;;;;;;;12.30;9.27;;;;;;;;;;4983410;28;98659;-79
2023/09/10 06:22:50;;;;;;;12.73;9.20;;;;;;;;;;4987141;28;98900;-79
2023/09/10 06:25:17;;;;;;;13.13;9.80;;;;;;;;;;4986544;28;101737;-79
2023/09/10 06:27:44;;;;;;;13.38;9.70;;;;;;;;;;4989233;28;98784;-79
2023/09/10 06:30:11;;;;;;;14.27;10.02;;;;;;;;;;4987430;28;101364;-79
2023/09/10 06:32:38;;;;;;;14.48;10.30;;;;;;;;;;4985063;28;98897;-79
2023/09/10 06:35:05;;;;;;;14.60;10.77;;;;;;;;;;4976606;28;101820;-79
2023/09/10 06:37:31;;;;;;;15.18;10.98;;;;;;;;;;4988767;28;102497;-79
2023/09/10 06:39:58;;;;;;;14.10;10.77;;;;;;;;;;5004023;28;98635;-79
2023/09/10 06:42:25;;;;;;;18.80;11.43;;;;;;;;;;4985422;28;101631;-79
2023/09/10 06:45:08;;;;;;;16.08;11.00;;;;;;;;;;4985716;28;101944;-80
2023/09/10 06:47:34;;;;;;;16.30;10.77;;;;;;;;;;5006867;28;98560;-79
2023/09/10 06:50:01;;;;;;;14.90;10.52;;;;;;;;;;4988148;28;99571;-79
2023/09/10 06:52:28;;;;;;;14.77;11.20;;;;;;;;;;5006765;28;98754;-79
2023/09/10 06:54:54;;;;;;;15.82;10.63;;;;;;;;;;5004285;28;100163;-79
2023/09/10 06:57:23;;;;;;;15.95;11.60;;;;;;;;;;4975258;28;101684;-79
2023/09/10 06:59:50;;;;;;;18.80;13.98;;;;;;;;;;4985734;28;98724;-79
2023/09/10 07:02:16;;;;;;;19.83;11.75;;;;;;;;;;5003231;28;99553;-79
2023/09/10 07:04:47;;;;;;;19.10;13.10;;;;;;;;;;5003154;28;99149;-79
2023/09/10 07:07:15;;;;;;;15.38;11.05;;;;;;;;;;4986468;28;98469;-78
2023/09/10 07:09:42;;;;;;;18.75;14.13;;;;;;;;;;5006208;28;99198;-80
2023/09/10 07:12:09;;;;;;;21.38;15.57;;;;;;;;;;4971707;28;98643;-79
2023/09/10 07:14:35;;;;;;;23.42;17.75;;;;;;;;;;4990610;28;99079;-80
2023/09/10 07:17:02;;;;;;;21.83;15.10;;;;;;;;;;4983282;28;99236;-80
2023/09/10 07:19:29;;;;;;;;;;;;;;;;;;4984427;28;98704;-80
2023/09/10 07:21:56;;;;;;;16.58;12.25;;;;;;;;;;5003534;28;99926;-79
2023/09/10 07:24:23;;;;;;;17.70;12.95;;;;;;;;;;4997795;28;100478;-79
2023/09/10 07:26:49;;;;;;;17.40;12.52;;;;;;;;;;4989370;28;99656;-79
2023/09/10 07:29:16;;;;;;;17.10;11.80;;;;;;;;;;4996181;28;99591;-79
2023/09/10 07:31:43;;;;;;;24.20;18.88;;;;;;;;;;5006506;28;99230;-79
2023/09/10 07:34:10;;;;;;;22.60;16.73;;;;;;;;;;5003110;28;99123;-79
2023/09/10 07:36:38;;;;;;;24.98;18.90;;;;;;;;;;4984879;28;101847;-79
2023/09/10 07:39:05;;;;;;;25.10;18.30;;;;;;;;;;5002959;28;98565;-79
2023/09/10 07:41:32;;;;;;;29.90;21.80;;;;;;;;;;5003191;28;98946;-79
2023/09/10 07:43:59;;;;;;;31.08;22.95;;;;;;;;;;5003441;28;99426;-79
2023/09/10 07:46:26;;;;;;;;;;;;;;;;;;5004634;28;99034;-79
2023/09/10 07:48:52;;;;;;;22.83;13.77;;;;;;;;;;5008991;28;100357;-78
2023/09/10 07:51:19;;;;;;;20.52;14.65;;;;;;;;;;5005741;28;99813;-78
2023/09/10 07:53:46;;;;;;;29.98;21.85;;;;;;;;;;5015000;28;98960;-77
2023/09/10 07:56:12;;;;;;;23.63;16.50;;;;;;;;;;5005986;28;100177;-77
2023/09/10 07:58:39;;;;;;;20.63;14.60;;;;;;;;;;4987985;28;99417;-77
2023/09/10 08:01:06;;;;;;;23.00;15.02;;;;;;;;;;5006695;28;99048;-77
2023/09/10 08:03:34;;;;;;;16.92;11.35;;;;;;;;;;5005557;28;99049;-78
2023/09/10 08:06:01;;;;;;;15.45;10.40;;;;;;;;;;5006849;28;98912;-77
2023/09/10 08:08:27;;;;;;;14.15;9.18;;;;;;;;;;4986429;28;98888;-79
2023/09/10 08:10:54;;;;;;;13.00;9.25;;;;;;;;;;4986884;28;99887;-79
2023/09/10 08:13:21;;;;;;;14.93;9.60;;;;;;;;;;4996402;28;99111;-78
2023/09/10 08:15:47;;;;;;;12.02;8.50;;;;;;;;;;5009690;28;100352;-81
2023/09/10 08:18:14;;;;;;;14.10;8.20;;;;;;;;;;4988528;28;99341;-79
2023/09/10 08:20:42;;;;;;;11.50;7.88;;;;;;;;;;5007287;28;100101;-80
2023/09/10 08:23:08;;;;;;;12.68;7.93;;;;;;;;;;5001282;28;99155;-80
2023/09/10 08:25:35;;;;;;;11.77;7.20;;;;;;;;;;4984839;28;98843;-80
2023/09/10 08:28:02;;;;;;;10.63;7.18;;;;;;;;;;4992049;28;98938;-80
2023/09/10 08:30:29;;;;;;;;;;;;;;;;;;5006127;28;99627;-79
2023/09/10 08:32:55;;;;;;;12.30;7.60;;;;;;;;;;4982904;28;98434;-80
2023/09/10 08:35:23;;;;;;;10.50;7.63;;;;;;;;;;5006917;28;98605;-80
2023/09/10 08:37:49;;;;;;;10.75;7.47;;;;;;;;;;4990788;28;101869;-79
2023/09/10 08:40:16;;;;;;;10.98;7.43;;;;;;;;;;4988509;28;99341;-79
2023/09/10 08:43:05;;;;;;;11.73;7.40;;;;;;;;;;4987736;28;101868;-80
2023/09/10 08:45:32;;;;;;;18.90;6.88;;;;;;;;;;5007209;28;99008;-79
2023/09/10 08:48:00;;;;;;;10.45;6.28;;;;;;;;;;4975926;28;99118;-79
2023/09/10 08:50:27;;;;;;;9.98;6.30;;;;;;;;;;5013788;28;99326;-79
2023/09/10 08:52:54;;;;;;;10.60;6.00;;;;;;;;;;5006249;28;98572;-79
2023/09/10 08:55:21;;;;;;;9.93;5.95;;;;;;;;;;5005638;28;99017;-79
2023/09/10 08:57:48;;;;;;;10.70;6.40;;;;;;;;;;4991054;28;98960;-79
2023/09/10 09:00:15;;;;;;;10.68;6.60;;;;;;;;;;4979411;28;100934;-80
2023/09/10 09:02:43;;;;;;;11.00;6.85;;;;;;;;;;4984585;28;99148;-79
2023/09/10 09:05:11;;;;;;;12.55;7.95;;;;;;;;;;4990928;28;99198;-80
2023/09/10 09:07:57;;;;;;;12.05;6.88;;;;;;;;;;4987956;28;100106;-80
2023/09/10 09:10:27;;;;;;;11.57;7.63;;;;;;;;;;4984958;28;99255;-79
2023/09/10 09:12:56;;;;;;;11.77;7.72;;;;;;;;;;5004395;28;98545;-80
2023/09/10 09:15:23;;;;;;;11.25;7.03;;;;;;;;;;4998265;28;99115;-80
2023/09/10 09:17:50;;;;;;;12.48;7.68;;;;;;;;;;5012923;28;100139;-80
2023/09/10 09:20:24;;;;;;;13.45;8.35;;;;;;;;;;5001244;28;98950;-80
2023/09/10 09:23:00;;;;;;;11.30;7.57;;;;;;;;;;4993529;28;98466;-80
2023/09/10 09:25:29;;;;;;;11.93;7.53;;;;;;;;;;4993461;28;98545;-80
2023/09/10 09:27:56;;;;;;;11.48;7.93;;;;;;;;;;4995903;28;99037;-80
2023/09/10 09:30:23;;;;;;;11.90;8.23;;;;;;;;;;4988281;28;99810;-79
2023/09/10 09:32:50;;;;;;;11.45;8.02;;;;;;;;;;5006536;28;98609;-83
2023/09/10 09:35:18;;;;;;;;;;;;;;;;;;4989243;28;100263;-83
2023/09/10 09:37:44;;;;;;;12.32;7.43;;;;;;;;;;5006906;28;113781;-81
2023/09/10 09:40:11;;;;;;;11.88;8.05;;;;;;;;;;5007627;28;98563;-82
2023/09/10 09:42:38;;;;;;;13.63;8.23;;;;;;;;;;4993584;28;103047;-82
2023/09/10 09:45:05;;;;;;;12.40;7.85;;;;;;;;;;4989123;28;98926;-82
2023/09/10 09:47:32;;;;;;;;;;;;;;;;;;5008307;28;101143;-81
2023/09/10 09:49:58;;;;;;;10.65;6.60;;;;;;;;;;5004590;28;105771;-83
2023/09/10 09:52:25;;;;;;;10.20;6.90;;;;;;;;;;4986651;28;99003;-83
2023/09/10 09:54:52;;;;;;;9.80;6.65;;;;;;;;;;4992461;28;99813;-84
2023/09/10 09:57:18;;;;;;;13.43;6.97;;;;;;;;;;4985872;28;99502;-83
2023/09/10 09:59:45;;;;;;;10.43;6.60;;;;;;;;;;4988083;28;98576;-82
2023/09/10 10:02:15;;;;;;;10.23;6.68;;;;;;;;;;4988181;28;99517;-82
2023/09/10 10:04:43;;;;;;;9.98;6.57;;;;;;;;;;4990294;28;99001;-82
2023/09/10 10:07:11;;;;;;;12.18;6.80;;;;;;;;;;4986462;28;101765;-83
2023/09/10 10:09:51;;;;;;;11.13;6.82;;;;;;;;;;5004697;28;99093;-83
2023/09/10 10:12:19;;;;;;;9.27;6.10;;;;;;;;;;5006253;28;97795;-84
2023/09/10 10:14:46;;;;;;;9.52;6.50;;;;;;;;;;4997362;28;98659;-83
2023/09/10 10:17:13;;;;;;;12.27;6.95;;;;;;;;;;4997300;28;99075;-83
2023/09/10 10:19:40;;;;;;;10.98;6.50;;;;;;;;;;4996654;28;99681;-82
2023/09/10 10:22:07;;;;;;;12.20;6.63;;;;;;;;;;4986282;28;99988;-82
2023/09/10 10:24:33;;;;;;;;;;;;;;;;;;5005595;28;98562;-84
2023/09/10 10:27:00;;;;;;;23.15;6.97;;;;;;;;;;5011064;28;99156;-84
2023/09/10 10:29:27;;;;;;;15.02;6.40;;;;;;;;;;4987640;28;99882;-83
2023/09/10 10:32:02;;;;;;;11.73;6.38;;;;;;;;;;5005948;28;98506;-83
2023/09/10 10:34:34;;;;;;;12.68;6.25;;;;;;;;;;5005266;28;98765;-82
2023/09/10 10:37:11;;;;;;;12.18;6.30;;;;;;;;;;5006087;28;99447;-83
2023/09/10 10:39:41;;;;;;;12.20;6.50;;;;;;;;;;4987699;28;98929;-82
2023/09/10 10:42:10;;;;;;;11.30;6.40;;;;;;;;;;5006159;28;99070;-82
2023/09/10 10:44:37;;;;;;;11.10;6.30;;;;;;;;;;5003039;28;99893;-82
2023/09/10 10:47:03;;;;;;;;;;;;;;;;;;5004823;28;101196;-83
2023/09/10 10:49:31;;;;;;;10.90;5.95;;;;;;;;;;5008448;28;100241;-83
2023/09/10 10:52:01;;;;;;;11.15;6.40;;;;;;;;;;5004891;28;98874;-82
2023/09/10 10:54:28;;;;;;;11.57;6.28;;;;;;;;;;4996530;28;99254;-83
2023/09/10 10:56:55;;;;;;;10.73;6.32;;;;;;;;;;5006578;28;100759;-83
2023/09/10 10:59:22;;;;;;;;;;;;;;;;;;5008242;28;99155;-83
2023/09/10 11:02:07;;;;;;;10.57;5.90;;;;;;;;;;5009121;28;113016;-83
2023/09/10 11:04:34;;;;;;;10.85;6.30;;;;;;;;;;4994896;28;100399;-82
2023/09/10 11:07:19;;;;;;;11.77;5.93;;;;;;;;;;4974241;28;98609;-82
2023/09/10 11:09:47;;;;;;;10.43;5.85;;;;;;;;;;4988748;28;99270;-83
2023/09/10 11:12:14;;;;;;;11.35;5.65;;;;;;;;;;4985727;28;98659;-85
2023/09/10 11:14:59;;;;;;;10.25;5.60;;;;;;;;;;4967222;28;102241;-83
2023/09/10 11:17:26;;;;;;;;;;;;;;;;;;4993490;28;99125;-80
2023/09/10 11:19:52;;;;;;;10.52;5.72;;;;;;;;;;4987010;28;99905;-83
2023/09/10 11:22:20;;;;;;;10.77;5.97;;;;;;;;;;5003931;28;99949;-83
2023/09/10 11:24:58;;;;;;;10.98;5.95;;;;;;;;;;5010093;28;99173;-84
2023/09/10 11:27:27;;;;;;;;;;;;;;;;;;4981050;28;97820;-83
2023/09/10 11:30:07;;;;;;;11.18;5.53;;;;;;;;;;5016779;28;98502;-82
2023/09/10 11:32:34;;;;;;;10.13;5.80;;;;;;;;;;5014052;28;99078;-83
2023/09/10 11:35:16;;;;;;;9.23;6.03;;;;;;;;;;5019919;28;99160;-83
2023/09/10 11:37:45;;;;;;;10.27;5.82;;;;;;;;;;5010632;28;100894;-84
2023/09/10 11:40:12;;;;;;;9.85;6.03;;;;;;;;;;5016853;28;98464;-83
2023/09/10 11:42:42;;;;;;;11.27;5.65;;;;;;;;;;5026345;28;99076;-82
2023/09/10 11:45:09;;;;;;;9.95;5.70;;;;;;;;;;5028420;28;98336;-83
2023/09/10 11:47:42;;;;;;;11.07;5.93;;;;;;;;;;5028959;28;98584;-83
2023/09/10 11:50:10;;;;;;;9.77;5.22;;;;;;;;;;5010147;28;98626;-84
2023/09/10 11:52:37;;;;;;;9.02;5.75;;;;;;;;;;5032439;28;97658;-83
2023/09/10 11:55:09;;;;;;;11.15;5.60;;;;;;;;;;5033837;28;100215;-83
2023/09/10 11:57:38;;;;;;;9.95;5.30;;;;;;;;;;5014834;28;99352;-83
2023/09/10 12:00:06;;;;;;;10.90;5.32;;;;;;;;;;5032774;28;99158;-83
2023/09/10 12:02:40;;;;;;;10.02;5.60;;;;;;;;;;5016928;28;98652;-83
2023/09/10 12:05:07;;;;;;;8.65;5.35;;;;;;;;;;4994829;28;99244;-84
2023/09/10 12:07:33;;;;;;;10.02;5.47;;;;;;;;;;5008799;28;98866;-85
2023/09/10 12:10:00;;;;;;;9.95;5.60;;;;;;;;;;5005722;28;99453;-83
2023/09/10 12:12:29;;;;;;;9.88;5.50;;;;;;;;;;4969682;28;99331;-82
2023/09/10 12:14:56;;;;;;;11.45;5.60;;;;;;;;;;5002524;28;98451;-82
2023/09/10 12:17:23;;;;;;;11.43;5.72;;;;;;;;;;4979057;28;98954;-82
2023/09/10 12:19:50;;;;;;;12.68;5.40;;;;;;;;;;5006303;28;98814;-82
2023/09/10 12:22:19;;;;;;;14.15;5.15;;;;;;;;;;5005817;28;100097;-82
2023/09/10 12:24:45;;;;;;;10.20;5.28;;;;;;;;;;5004954;28;100387;-82
2023/09/10 12:27:13;;;;;;;11.38;5.68;;;;;;;;;;5004278;28;98746;-82
2023/09/10 12:29:40;;;;;;;11.52;4.88;;;;;;;;;;4986061;28;100309;-83
2023/09/10 12:32:07;;;;;;;9.02;4.93;;;;;;;;;;5004038;28;99224;-82
2023/09/10 12:34:33;;;;;;;9.95;5.05;;;;;;;;;;5004576;28;98995;-82
2023/09/10 12:37:00;;;;;;;8.82;4.75;;;;;;;;;;5005684;28;99574;-82
2023/09/10 12:39:27;;;;;;;9.45;5.05;;;;;;;;;;5008188;28;101422;-84
2023/09/10 12:41:54;;;;;;;8.77;4.63;;;;;;;;;;5007119;28;100181;-83
2023/09/10 12:44:21;;;;;;;10.15;5.25;;;;;;;;;;5006935;28;99911;-82
2023/09/10 12:46:48;;;;;;;9.65;4.88;;;;;;;;;;5006993;28;98917;-83
2023/09/10 12:49:15;;;;;;;9.50;4.50;;;;;;;;;;5006644;28;99753;-83
2023/09/10 12:51:41;;;;;;;;;;;;;;;;;;5006848;28;99746;-83
2023/09/10 12:54:08;;;;;;;8.57;4.78;;;;;;;;;;5007176;28;98961;-83
2023/09/10 12:56:38;;;;;;;7.80;4.22;;;;;;;;;;5005904;28;98993;-82
2023/09/10 12:59:08;;;;;;;8.27;4.53;;;;;;;;;;5006123;28;99209;-83
2023/09/10 13:01:37;;;;;;;8.43;4.78;;;;;;;;;;5009564;28;98620;-83
2023/09/10 13:04:04;;;;;;;7.53;4.10;;;;;;;;;;5006432;28;99157;-82
2023/09/10 13:06:30;;;;;;;;;;;;;;;;;;5007825;28;97742;-83
2023/09/10 13:09:00;;;;;;;8.00;4.40;;;;;;;;;;5008380;28;98611;-83
2023/09/10 13:11:27;;;;;;;11.07;4.35;;;;;;;;;;5006039;28;100598;-82
2023/09/10 13:13:54;;;;;;;8.00;4.30;;;;;;;;;;5006157;28;99878;-82
2023/09/10 13:16:20;;;;;;;8.48;4.13;;;;;;;;;;4987934;28;102434;-83
2023/09/10 13:18:47;;;;;;;8.63;4.18;;;;;;;;;;5006178;28;100858;-83
2023/09/10 13:21:13;;;;;;;8.48;4.28;;;;;;;;;;5009975;28;98499;-83
2023/09/10 13:23:40;;;;;;;7.25;3.92;;;;;;;;;;5005501;28;100416;-83
2023/09/10 13:26:07;;;;;;;6.82;4.07;;;;;;;;;;5006728;28;98513;-83
2023/09/10 13:28:34;;;;;;;;;;;;;;;;;;4988464;28;99076;-83
2023/09/10 13:31:01;;;;;;;7.93;3.97;;;;;;;;;;4989663;28;119582;-83
2023/09/10 13:33:27;;;;;;;;;;;;;;;;;;5007332;28;98487;-83
2023/09/10 13:35:54;;;;;;;7.10;3.88;;;;;;;;;;4989532;28;115438;-82
2023/09/10 13:38:21;;;;;;;8.90;4.22;;;;;;;;;;4987727;28;100081;-82
2023/09/10 13:40:53;;;;;;;7.93;4.15;;;;;;;;;;5006441;28;98743;-83
2023/09/10 13:43:20;;;;;;;7.45;3.80;;;;;;;;;;5009719;28;99182;-83
2023/09/10 13:45:47;;;;;;;7.53;3.97;;;;;;;;;;4987308;28;98529;-82
2023/09/10 13:48:14;;;;;;;7.97;3.60;;;;;;;;;;5007029;28;98937;-82
2023/09/10 13:50:41;;;;;;;6.10;3.70;;;;;;;;;;4989137;28;100006;-83
2023/09/10 13:53:08;;;;;;;;;;;;;;;;;;5007888;28;98635;-82
2023/09/10 13:55:35;;;;;;;6.85;3.78;;;;;;;;;;5011204;28;98423;-82
2023/09/10 13:58:01;;;;;;;6.63;3.92;;;;;;;;;;5007858;28;98458;-82
2023/09/10 14:00:28;;;;;;;8.15;3.78;;;;;;;;;;5008142;28;98615;-83
2023/09/10 14:02:54;;;;;;;7.70;3.83;;;;;;;;;;5006553;28;99422;-83
2023/09/10 14:05:21;;;;;;;7.28;3.67;;;;;;;;;;5009484;28;99313;-83
2023/09/10 14:07:48;;;;;;;6.72;3.53;;;;;;;;;;5006219;28;98937;-83
2023/09/10 14:10:14;;;;;;;6.20;3.38;;;;;;;;;;5006027;28;99516;-83
2023/09/10 14:12:41;;;;;;;;;;;;;;;;;;5006744;28;99020;-83
2023/09/10 14:15:08;;;;;;;7.25;3.83;;;;;;;;;;4991228;28;98679;-83
2023/09/10 14:17:35;;;;;;;6.18;3.70;;;;;;;;;;4993214;28;99349;-83
2023/09/10 14:20:04;;;;;;;6.38;3.20;;;;;;;;;;5016357;28;98628;-83
2023/09/10 14:22:31;;;;;;;6.43;3.85;;;;;;;;;;5009069;28;98464;-82
2023/09/10 14:24:58;;;;;;;;;;;;;;;;;;5009512;28;98641;-83
2023/09/10 14:27:24;;;;;;;7.80;3.90;;;;;;;;;;5009607;28;100208;-83
2023/09/10 14:29:51;;;;;;;;;;;;;;;;;;5006251;28;99787;-83
2023/09/10 14:32:17;;;;;;;6.80;3.50;;;;;;;;;;4989256;28;98565;-83
2023/09/10 14:34:44;;;;;;;5.85;3.40;;;;;;;;;;5006174;28;98895;-83